sensor_id;sensor_type;location;lat;lon;timestamp;pressure;altitude;pressure_sealevel;temperature;humidity
44825;BME280;30542;47.928;2.138;2024-02-16T00:03:55;99891.91;;;20.44;49.99
44825;BME280;30542;47.928;2.138;2024-02-16T00:08:55;99902.63;;;20.44;50.24
44825;BME280;30542;47.928;2.138;2024-02-16T00:13:55;99902.91;;;20.43;50.30
44825;BME280;30542;47.928;2.138;2024-02-16T00:18:55;99903.69;;;20.43;50.30
44825;BME280;30542;47.928;2.138;2024-02-16T00:23:56;99914.41;;;20.43;50.91
44825;BME280;30542;47.928;2.138;2024-02-16T00:28:56;99910.94;;;20.43;50.28
44825;BME280;30542;47.928;2.138;2024-02-16T00:33:57;99912.28;;;20.40;50.42
44825;BME280;30542;47.928;2.138;2024-02-16T00:38:58;99918.16;;;20.42;50.25
44825;BME280;30542;47.928;2.138;2024-02-16T00:43:58;99924.59;;;20.41;50.26
44825;BME280;30542;47.928;2.138;2024-02-16T00:48:59;99920.59;;;20.39;50.53
44825;BME280;30542;47.928;2.138;2024-02-16T00:53:59;99916.03;;;20.39;50.35
44825;BME280;30542;47.928;2.138;2024-02-16T00:58:59;99918.19;;;20.37;49.96
44825;BME280;30542;47.928;2.138;2024-02-16T01:03:59;99919.78;;;20.38;50.47
44825;BME280;30542;47.928;2.138;2024-02-16T01:09:00;99923.53;;;20.37;50.60
44825;BME280;30542;47.928;2.138;2024-02-16T01:14:00;99921.91;;;20.36;50.32
44825;BME280;30542;47.928;2.138;2024-02-16T01:19:01;99927.28;;;20.36;50.19
44825;BME280;30542;47.928;2.138;2024-02-16T01:24:01;99915.53;;;20.32;50.31
44825;BME280;30542;47.928;2.138;2024-02-16T01:29:01;99924.09;;;20.34;50.31
44825;BME280;30542;47.928;2.138;2024-02-16T01:34:02;99924.88;;;20.34;50.14
44825;BME280;30542;47.928;2.138;2024-02-16T01:39:03;99930.22;;;20.34;50.29
44825;BME280;30542;47.928;2.138;2024-02-16T01:44:03;99930.22;;;20.34;50.23
44825;BME280;30542;47.928;2.138;2024-02-16T01:49:03;99936.13;;;20.31;50.29
44825;BME280;30542;47.928;2.138;2024-02-16T01:54:04;99930.78;;;20.31;50.31
44825;BME280;30542;47.928;2.138;2024-02-16T01:59:04;99934.53;;;20.30;50.25
44825;BME280;30542;47.928;2.138;2024-02-16T02:04:05;99934.53;;;20.30;50.31
44825;BME280;30542;47.928;2.138;2024-02-16T02:09:06;99942.56;;;20.30;50.37
44825;BME280;30542;47.928;2.138;2024-02-16T02:14:07;99944.44;;;20.30;50.37
44825;BME280;30542;47.928;2.138;2024-02-16T02:19:07;99943.63;;;20.29;50.33
44825;BME280;30542;47.928;2.138;2024-02-16T02:24:07;99942.84;;;20.29;50.12
44825;BME280;30542;47.928;2.138;2024-02-16T02:29:08;99945.78;;;20.27;50.41
44825;BME280;30542;47.928;2.138;2024-02-16T02:34:08;99939.63;;;20.27;50.40
44825;BME280;30542;47.928;2.138;2024-02-16T02:39:09;99937.22;;;20.25;50.36
44825;BME280;30542;47.928;2.138;2024-02-16T02:44:10;99928.41;;;20.25;50.43
44825;BME280;30542;47.928;2.138;2024-02-16T02:49:11;99922.81;;;20.21;50.33
44825;BME280;30542;47.928;2.138;2024-02-16T02:54:11;99914.53;;;20.18;50.47
44825;BME280;30542;47.928;2.138;2024-02-16T02:59:12;99933.22;;;20.23;50.30
44825;BME280;30542;47.928;2.138;2024-02-16T03:04:12;99944.72;;;20.23;50.45
44825;BME280;30542;47.928;2.138;2024-02-16T03:09:12;99940.19;;;20.24;50.29
44825;BME280;30542;47.928;2.138;2024-02-16T03:14:12;99950.06;;;20.23;50.48
44825;BME280;30542;47.928;2.138;2024-02-16T03:19:13;99941.28;;;20.18;50.63
44825;BME280;30542;47.928;2.138;2024-02-16T03:24:14;99945.81;;;20.22;50.44
44825;BME280;30542;47.928;2.138;2024-02-16T03:29:14;99948.75;;;20.21;50.46
44825;BME280;30542;47.928;2.138;2024-02-16T03:34:15;99953.31;;;20.20;50.30
44825;BME280;30542;47.928;2.138;2024-02-16T03:39:15;99964.00;;;20.20;50.25
44825;BME280;30542;47.928;2.138;2024-02-16T03:44:20;99969.34;;;20.20;50.23
44825;BME280;30542;47.928;2.138;2024-02-16T03:49:20;99980.31;;;20.19;50.52
44825;BME280;30542;47.928;2.138;2024-02-16T03:54:20;99993.69;;;20.19;50.45
44825;BME280;30542;47.928;2.138;2024-02-16T03:59:21;100000.09;;;20.18;50.57
44825;BME280;30542;47.928;2.138;2024-02-16T04:04:23;100006.25;;;20.18;50.34
44825;BME280;30542;47.928;2.138;2024-02-16T04:09:24;100014.28;;;20.18;50.53
44825;BME280;30542;47.928;2.138;2024-02-16T04:14:24;100014.28;;;20.18;50.34
44825;BME280;30542;47.928;2.138;2024-02-16T04:19:27;100023.09;;;20.19;50.32
44825;BME280;30542;47.928;2.138;2024-02-16T04:24:27;100041.28;;;20.22;50.33
44825;BME280;30542;47.928;2.138;2024-02-16T04:29:28;100045.53;;;20.23;50.35
44825;BME280;30542;47.928;2.138;2024-02-16T04:34:28;100047.69;;;20.26;50.42
44825;BME280;30542;47.928;2.138;2024-02-16T04:39:28;100057.28;;;20.32;50.49
44825;BME280;30542;47.928;2.138;2024-02-16T04:44:29;100043.63;;;20.39;50.19
44825;BME280;30542;47.928;2.138;2024-02-16T04:49:30;100065.81;;;20.44;50.49
44825;BME280;30542;47.928;2.138;2024-02-16T04:54:30;100070.63;;;20.47;49.99
44825;BME280;30542;47.928;2.138;2024-02-16T04:59:30;100071.69;;;20.56;50.06
44825;BME280;30542;47.928;2.138;2024-02-16T05:04:31;100079.16;;;20.59;50.08
44825;BME280;30542;47.928;2.138;2024-02-16T05:09:32;100041.50;;;20.30;49.94
44825;BME280;30542;47.928;2.138;2024-02-16T05:14:32;100093.06;;;20.67;50.07
44825;BME280;30542;47.928;2.138;2024-02-16T05:19:33;100098.94;;;20.69;50.14
44825;BME280;30542;47.928;2.138;2024-02-16T05:24:35;100100.00;;;20.68;50.33
44825;BME280;30542;47.928;2.138;2024-02-16T05:29:35;100118.19;;;20.76;50.43
44825;BME280;30542;47.928;2.138;2024-02-16T05:34:35;100110.69;;;20.73;50.63
44825;BME280;30542;47.928;2.138;2024-02-16T05:39:39;100121.63;;;20.81;51.65
44825;BME280;30542;47.928;2.138;2024-02-16T05:44:53;100127.25;;;20.85;52.62
44825;BME280;30542;47.928;2.138;2024-02-16T05:49:54;100134.72;;;20.88;52.50
44825;BME280;30542;47.928;2.138;2024-02-16T05:54:54;100142.75;;;20.88;52.19
44825;BME280;30542;47.928;2.138;2024-02-16T05:59:55;100148.66;;;20.90;51.98
44825;BME280;30542;47.928;2.138;2024-02-16T06:04:56;100147.56;;;20.91;52.24
44825;BME280;30542;47.928;2.138;2024-02-16T06:09:56;100157.75;;;20.89;51.99
44825;BME280;30542;47.928;2.138;2024-02-16T06:14:57;100162.56;;;20.92;52.09
44825;BME280;30542;47.928;2.138;2024-02-16T06:19:58;100171.94;;;20.95;51.94
44825;BME280;30542;47.928;2.138;2024-02-16T06:24:58;100173.53;;;20.96;51.98
44825;BME280;30542;47.928;2.138;2024-02-16T06:29:58;100177.00;;;20.96;51.78
44825;BME280;30542;47.928;2.138;2024-02-16T06:34:59;100197.63;;;20.96;51.98
44825;BME280;30542;47.928;2.138;2024-02-16T06:39:59;100200.00;;;20.97;51.81
44825;BME280;30542;47.928;2.138;2024-02-16T06:44:59;100205.13;;;20.99;51.91
44825;BME280;30542;47.928;2.138;2024-02-16T06:50:00;100206.97;;;20.98;51.85
44825;BME280;30542;47.928;2.138;2024-02-16T06:55:00;100221.97;;;20.99;51.77
44825;BME280;30542;47.928;2.138;2024-02-16T07:00:00;100229.22;;;20.99;51.48
44825;BME280;30542;47.928;2.138;2024-02-16T07:05:03;100236.16;;;21.00;51.56
44825;BME280;30542;47.928;2.138;2024-02-16T07:10:03;100256.22;;;21.02;51.71
44825;BME280;30542;47.928;2.138;2024-02-16T07:15:05;100262.41;;;21.03;51.74
44825;BME280;30542;47.928;2.138;2024-02-16T07:20:06;100262.41;;;21.03;51.95
44825;BME280;30542;47.928;2.138;2024-02-16T07:25:07;100274.97;;;21.02;51.95
44825;BME280;30542;47.928;2.138;2024-02-16T07:30:08;100277.66;;;20.97;52.21
44825;BME280;30542;47.928;2.138;2024-02-16T07:35:11;100286.50;;;21.03;52.82
44825;BME280;30542;47.928;2.138;2024-02-16T07:40:13;100299.63;;;21.04;52.83
44825;BME280;30542;47.928;2.138;2024-02-16T07:45:13;100299.06;;;21.02;53.15
44825;BME280;30542;47.928;2.138;2024-02-16T07:50:18;100305.75;;;21.10;53.18
44825;BME280;30542;47.928;2.138;2024-02-16T07:55:19;100314.34;;;21.12;53.51
44825;BME280;30542;47.928;2.138;2024-02-16T08:00:20;100318.59;;;21.13;53.09
44825;BME280;30542;47.928;2.138;2024-02-16T08:05:21;100324.75;;;21.14;53.17
44825;BME280;30542;47.928;2.138;2024-02-16T08:10:22;100329.03;;;21.15;53.47
44825;BME280;30542;47.928;2.138;2024-02-16T08:15:22;100334.41;;;21.15;53.01
44825;BME280;30542;47.928;2.138;2024-02-16T08:20:24;100337.06;;;21.15;53.04
44825;BME280;30542;47.928;2.138;2024-02-16T08:25:24;100341.38;;;21.16;53.12
44825;BME280;30542;47.928;2.138;2024-02-16T08:30:24;100352.09;;;21.16;52.96
44825;BME280;30542;47.928;2.138;2024-02-16T08:35:25;100359.06;;;21.17;53.08
44825;BME280;30542;47.928;2.138;2024-02-16T08:40:26;100359.84;;;21.17;53.09
44825;BME280;30542;47.928;2.138;2024-02-16T08:45:26;100367.59;;;21.19;53.10
44825;BME280;30542;47.928;2.138;2024-02-16T08:50:26;100372.44;;;21.17;52.96
44825;BME280;30542;47.928;2.138;2024-02-16T08:55:27;100387.19;;;21.19;53.09
44825;BME280;30542;47.928;2.138;2024-02-16T09:00:27;100390.66;;;21.20;52.75
44825;BME280;30542;47.928;2.138;2024-02-16T09:05:28;100398.69;;;21.20;52.86
44825;BME280;30542;47.928;2.138;2024-02-16T09:10:28;100402.97;;;21.21;52.74
44825;BME280;30542;47.928;2.138;2024-02-16T09:15:29;100408.34;;;21.21;52.73
44825;BME280;30542;47.928;2.138;2024-02-16T09:20:29;100400.03;;;21.17;52.90
44825;BME280;30542;47.928;2.138;2024-02-16T09:25:29;100409.13;;;21.21;52.76
44825;BME280;30542;47.928;2.138;2024-02-16T09:30:30;100413.41;;;21.22;52.63
44825;BME280;30542;47.928;2.138;2024-02-16T09:35:31;100420.66;;;21.22;52.75
44825;BME280;30542;47.928;2.138;2024-02-16T09:40:31;100423.03;;;21.23;52.84
44825;BME280;30542;47.928;2.138;2024-02-16T09:45:32;100427.59;;;21.23;52.86
44825;BME280;30542;47.928;2.138;2024-02-16T09:50:33;100435.13;;;21.21;52.50
44825;BME280;30542;47.928;2.138;2024-02-16T09:55:34;100449.84;;;21.23;52.78
44825;BME280;30542;47.928;2.138;2024-02-16T10:00:35;100455.47;;;21.22;52.88
44825;BME280;30542;47.928;2.138;2024-02-16T10:05:35;100456.03;;;21.24;52.42
44825;BME280;30542;47.928;2.138;2024-02-16T10:10:35;100462.97;;;21.25;52.69
44825;BME280;30542;47.928;2.138;2024-02-16T10:15:37;100464.84;;;21.24;52.65
44825;BME280;30542;47.928;2.138;2024-02-16T10:20:38;100475.28;;;21.26;52.51
44825;BME280;30542;47.928;2.138;2024-02-16T10:25:39;100473.41;;;21.26;52.48
44825;BME280;30542;47.928;2.138;2024-02-16T10:30:43;100485.22;;;21.25;52.58
44825;BME280;30542;47.928;2.138;2024-02-16T10:35:44;100492.97;;;21.27;52.48
44825;BME280;30542;47.928;2.138;2024-02-16T10:40:47;100492.44;;;21.20;52.55
44825;BME280;30542;47.928;2.138;2024-02-16T10:45:49;100506.13;;;21.28;52.48
44825;BME280;30542;47.928;2.138;2024-02-16T10:50:53;100523.22;;;21.27;52.40
44825;BME280;30542;47.928;2.138;2024-02-16T10:55:57;100520.56;;;21.22;52.45
44825;BME280;30542;47.928;2.138;2024-02-16T11:01:07;100527.53;;;21.28;52.44
44825;BME280;30542;47.928;2.138;2024-02-16T11:06:17;100535.59;;;21.28;52.52
44825;BME280;30542;47.928;2.138;2024-02-16T11:11:24;100543.34;;;21.30;52.47
44825;BME280;30542;47.928;2.138;2024-02-16T11:16:24;100548.69;;;21.30;52.47
44825;BME280;30542;47.928;2.138;2024-02-16T11:21:24;100546.81;;;21.30;52.37
44825;BME280;30542;47.928;2.138;2024-02-16T11:26:25;100553.78;;;21.26;52.29
44825;BME280;30542;47.928;2.138;2024-02-16T11:31:26;100555.66;;;21.31;52.28
44825;BME280;30542;47.928;2.138;2024-02-16T11:36:27;100560.22;;;21.30;52.31
44825;BME280;30542;47.928;2.138;2024-02-16T11:41:27;100563.69;;;21.31;52.46
44825;BME280;30542;47.928;2.138;2024-02-16T11:46:29;100570.72;;;21.32;52.30
44825;BME280;30542;47.928;2.138;2024-02-16T11:51:29;100569.06;;;21.31;52.36
44825;BME280;30542;47.928;2.138;2024-02-16T11:56:29;100571.72;;;21.31;52.39
44825;BME280;30542;47.928;2.138;2024-02-16T12:01:30;100573.41;;;21.32;52.14
44825;BME280;30542;47.928;2.138;2024-02-16T12:06:30;100581.44;;;21.32;52.13
44825;BME280;30542;47.928;2.138;2024-02-16T12:11:31;100574.41;;;21.31;52.15
44825;BME280;30542;47.928;2.138;2024-02-16T12:16:31;100580.56;;;21.31;52.24
44825;BME280;30542;47.928;2.138;2024-02-16T12:21:32;100609.84;;;21.33;52.27
44825;BME280;30542;47.928;2.138;2024-02-16T12:26:32;100599.91;;;21.33;52.10
44825;BME280;30542;47.928;2.138;2024-02-16T12:31:32;100607.63;;;21.30;52.37
44825;BME280;30542;47.928;2.138;2024-02-16T12:36:38;100622.94;;;21.34;52.09
44825;BME280;30542;47.928;2.138;2024-02-16T12:41:40;100620.53;;;21.33;52.07
44825;BME280;30542;47.928;2.138;2024-02-16T12:46:42;100619.47;;;21.34;51.95
44825;BME280;30542;47.928;2.138;2024-02-16T12:51:43;100630.19;;;21.34;52.05
44825;BME280;30542;47.928;2.138;2024-02-16T12:56:43;100629.38;;;21.33;52.08
44825;BME280;30542;47.928;2.138;2024-02-16T13:01:45;100639.31;;;21.33;52.08
44825;BME280;30542;47.928;2.138;2024-02-16T13:06:46;100647.34;;;21.33;52.01
44825;BME280;30542;47.928;2.138;2024-02-16T13:11:47;100655.91;;;21.35;52.11
44825;BME280;30542;47.928;2.138;2024-02-16T13:16:54;100670.38;;;21.34;51.87
44825;BME280;30542;47.928;2.138;2024-02-16T13:21:54;100670.38;;;21.34;51.82
44825;BME280;30542;47.928;2.138;2024-02-16T13:26:55;100687.25;;;21.34;51.78
44825;BME280;30542;47.928;2.138;2024-02-16T13:31:56;100689.94;;;21.34;51.94
44825;BME280;30542;47.928;2.138;2024-02-16T13:36:56;100695.28;;;21.34;52.01
44825;BME280;30542;47.928;2.138;2024-02-16T13:41:57;100703.34;;;21.34;51.90
44825;BME280;30542;47.928;2.138;2024-02-16T13:46:57;100703.34;;;21.34;52.07
44825;BME280;30542;47.928;2.138;2024-02-16T13:51:57;100712.44;;;21.33;52.06
44825;BME280;30542;47.928;2.138;2024-02-16T13:56:58;100710.84;;;21.32;52.20
44825;BME280;30542;47.928;2.138;2024-02-16T14:02:00;100711.31;;;21.29;51.97
44825;BME280;30542;47.928;2.138;2024-02-16T14:07:01;100727.72;;;21.33;51.46
44825;BME280;30542;47.928;2.138;2024-02-16T14:12:01;100729.59;;;21.32;51.89
44825;BME280;30542;47.928;2.138;2024-02-16T14:17:02;100731.47;;;21.32;51.65
44825;BME280;30542;47.928;2.138;2024-02-16T14:22:02;100736.84;;;21.32;51.64
44825;BME280;30542;47.928;2.138;2024-02-16T14:27:04;100749.97;;;21.33;51.81
44825;BME280;30542;47.928;2.138;2024-02-16T14:32:05;100753.44;;;21.34;51.65
44825;BME280;30542;47.928;2.138;2024-02-16T14:37:05;100762.28;;;21.34;51.77
44825;BME280;30542;47.928;2.138;2024-02-16T14:42:05;100771.41;;;21.33;51.65
44825;BME280;30542;47.928;2.138;2024-02-16T14:47:06;100784.78;;;21.33;51.49
44825;BME280;30542;47.928;2.138;2024-02-16T14:52:06;100766.72;;;21.19;51.73
44825;BME280;30542;47.928;2.138;2024-02-16T14:57:07;100803.56;;;21.33;51.74
44825;BME280;30542;47.928;2.138;2024-02-16T15:02:07;100815.06;;;21.34;51.80
44825;BME280;30542;47.928;2.138;2024-02-16T15:07:08;100823.09;;;21.34;51.66
44825;BME280;30542;47.928;2.138;2024-02-16T15:12:10;100830.34;;;21.33;51.94
44825;BME280;30542;47.928;2.138;2024-02-16T15:17:10;100832.22;;;21.33;51.49
44825;BME280;30542;47.928;2.138;2024-02-16T15:22:10;100838.38;;;21.33;51.43
44825;BME280;30542;47.928;2.138;2024-02-16T15:27:11;100840.25;;;21.33;51.38
44825;BME280;30542;47.928;2.138;2024-02-16T15:32:11;100863.31;;;21.34;51.35
44825;BME280;30542;47.928;2.138;2024-02-16T15:37:12;100865.19;;;21.33;51.53
44825;BME280;30542;47.928;2.138;2024-02-16T15:42:12;100872.41;;;21.33;51.39
44825;BME280;30542;47.928;2.138;2024-02-16T15:47:12;100876.16;;;21.32;51.47
44825;BME280;30542;47.928;2.138;2024-02-16T15:52:13;100883.94;;;21.33;51.20
44825;BME280;30542;47.928;2.138;2024-02-16T15:57:13;100890.09;;;21.34;51.31
44825;BME280;30542;47.928;2.138;2024-02-16T16:02:13;100893.84;;;21.33;51.36
44825;BME280;30542;47.928;2.138;2024-02-16T16:07:14;100913.41;;;21.33;51.38
44825;BME280;30542;47.928;2.138;2024-02-16T16:12:14;100927.59;;;21.34;51.43
44825;BME280;30542;47.928;2.138;2024-02-16T16:17:15;100927.06;;;21.32;51.42
44825;BME280;30542;47.928;2.138;2024-02-16T16:22:15;100935.66;;;21.34;51.37
44825;BME280;30542;47.928;2.138;2024-02-16T16:27:16;100947.44;;;21.33;51.18
44825;BME280;30542;47.928;2.138;2024-02-16T16:32:16;100956.28;;;21.33;51.20
44825;BME280;30542;47.928;2.138;2024-02-16T16:37:16;100956.56;;;21.32;51.26
44825;BME280;30542;47.928;2.138;2024-02-16T16:42:17;100963.50;;;21.33;51.05
44825;BME280;30542;47.928;2.138;2024-02-16T16:47:17;100972.34;;;21.33;51.29
44825;BME280;30542;47.928;2.138;2024-02-16T16:52:17;100977.72;;;21.33;51.30
44825;BME280;30542;47.928;2.138;2024-02-16T16:57:18;100988.44;;;21.33;51.31
44825;BME280;30542;47.928;2.138;2024-02-16T17:02:19;100998.88;;;21.35;51.48
44825;BME280;30542;47.928;2.138;2024-02-16T17:07:20;101004.25;;;21.35;51.28
44825;BME280;30542;47.928;2.138;2024-02-16T17:12:21;101018.72;;;21.34;51.15
44825;BME280;30542;47.928;2.138;2024-02-16T17:17:23;101031.84;;;21.35;51.22
44825;BME280;30542;47.928;2.138;2024-02-16T17:22:23;101047.13;;;21.35;51.27
44825;BME280;30542;47.928;2.138;2024-02-16T17:27:24;101045.50;;;21.34;51.24
44825;BME280;30542;47.928;2.138;2024-02-16T17:32:24;101058.91;;;21.34;51.39
44825;BME280;30542;47.928;2.138;2024-02-16T17:37:24;101065.34;;;21.33;51.18
44825;BME280;30542;47.928;2.138;2024-02-16T17:42:25;101068.22;;;21.31;51.07
44825;BME280;30542;47.928;2.138;2024-02-16T17:47:26;101084.91;;;21.33;50.93
44825;BME280;30542;47.928;2.138;2024-02-16T17:52:26;101098.31;;;21.33;51.20
44825;BME280;30542;47.928;2.138;2024-02-16T17:57:26;101097.50;;;21.33;51.13
44825;BME280;30542;47.928;2.138;2024-02-16T18:02:27;101112.50;;;21.34;50.95
44825;BME280;30542;47.928;2.138;2024-02-16T18:07:30;101122.97;;;21.35;50.62
44825;BME280;30542;47.928;2.138;2024-02-16T18:12:30;101129.66;;;21.33;50.98
44825;BME280;30542;47.928;2.138;2024-02-16T18:17:30;101137.69;;;21.33;50.75
44825;BME280;30542;47.928;2.138;2024-02-16T18:22:31;101140.38;;;21.33;50.81
44825;BME280;30542;47.928;2.138;2024-02-16T18:27:31;101165.56;;;21.32;50.77
44825;BME280;30542;47.928;2.138;2024-02-16T18:32:31;101174.59;;;21.31;50.92
44825;BME280;30542;47.928;2.138;2024-02-16T18:37:31;101176.75;;;21.29;50.67
44825;BME280;30542;47.928;2.138;2024-02-16T18:42:32;101190.69;;;21.31;50.77
44825;BME280;30542;47.928;2.138;2024-02-16T18:47:32;101189.06;;;21.30;50.61
44825;BME280;30542;47.928;2.138;2024-02-16T18:52:33;101209.78;;;21.34;50.36
44825;BME280;30542;47.928;2.138;2024-02-16T18:57:34;101219.69;;;21.34;50.65
44825;BME280;30542;47.928;2.138;2024-02-16T19:02:34;101222.38;;;21.34;50.48
44825;BME280;30542;47.928;2.138;2024-02-16T19:07:38;101232.84;;;21.35;50.20
44825;BME280;30542;47.928;2.138;2024-02-16T19:12:38;101236.34;;;21.36;50.42
44825;BME280;30542;47.928;2.138;2024-02-16T19:17:39;101233.91;;;21.34;50.43
44825;BME280;30542;47.928;2.138;2024-02-16T19:22:39;101235.50;;;21.35;50.67
44825;BME280;30542;47.928;2.138;2024-02-16T19:27:40;101234.69;;;21.35;50.43
44825;BME280;30542;47.928;2.138;2024-02-16T19:32:40;101233.09;;;21.34;50.59
44825;BME280;30542;47.928;2.138;2024-02-16T19:37:40;101241.13;;;21.34;50.22
44825;BME280;30542;47.928;2.138;2024-02-16T19:42:41;101252.44;;;21.36;50.60
44825;BME280;30542;47.928;2.138;2024-02-16T19:47:41;101263.16;;;21.36;50.46
44825;BME280;30542;47.928;2.138;2024-02-16T19:52:56;101274.09;;;21.34;50.43
44825;BME280;30542;47.928;2.138;2024-02-16T19:57:56;101278.97;;;21.38;50.41
44825;BME280;30542;47.928;2.138;2024-02-16T20:02:56;101287.81;;;21.38;50.25
44825;BME280;30542;47.928;2.138;2024-02-16T20:07:58;101287.81;;;21.38;50.56
44825;BME280;30542;47.928;2.138;2024-02-16T20:12:58;101296.66;;;21.39;50.50
44825;BME280;30542;47.928;2.138;2024-02-16T20:17:59;101306.56;;;21.38;50.54
44825;BME280;30542;47.928;2.138;2024-02-16T20:23:04;101307.38;;;21.39;50.48
44825;BME280;30542;47.928;2.138;2024-02-16T20:28:04;101318.34;;;21.37;50.43
44825;BME280;30542;47.928;2.138;2024-02-16T20:33:05;101321.59;;;21.39;50.58
44825;BME280;30542;47.928;2.138;2024-02-16T20:38:05;101341.41;;;21.38;50.56
44825;BME280;30542;47.928;2.138;2024-02-16T20:43:06;101338.72;;;21.38;50.65
44825;BME280;30542;47.928;2.138;2024-02-16T20:48:07;101343.28;;;21.38;50.52
44825;BME280;30542;47.928;2.138;2024-02-16T20:53:07;101349.44;;;21.38;50.57
44825;BME280;30542;47.928;2.138;2024-02-16T20:58:08;101365.53;;;21.38;50.76
44825;BME280;30542;47.928;2.138;2024-02-16T21:03:08;101369.28;;;21.37;50.57
44825;BME280;30542;47.928;2.138;2024-02-16T21:08:09;101380.81;;;21.38;50.48
44825;BME280;30542;47.928;2.138;2024-02-16T21:13:11;101399.56;;;21.38;50.72
44825;BME280;30542;47.928;2.138;2024-02-16T21:18:11;101396.06;;;21.37;50.51
44825;BME280;30542;47.928;2.138;2024-02-16T21:23:12;101406.81;;;21.37;50.57
44825;BME280;30542;47.928;2.138;2024-02-16T21:28:12;101410.53;;;21.36;50.39
44825;BME280;30542;47.928;2.138;2024-02-16T21:33:15;101419.63;;;21.35;50.51
44825;BME280;30542;47.928;2.138;2024-02-16T21:38:16;101423.38;;;21.34;50.51
44825;BME280;30542;47.928;2.138;2024-02-16T21:43:19;101438.91;;;21.32;50.48
44825;BME280;30542;47.928;2.138;2024-02-16T21:48:19;101443.38;;;21.31;50.37
44825;BME280;30542;47.928;2.138;2024-02-16T21:53:19;101443.63;;;21.30;50.48
44825;BME280;30542;47.928;2.138;2024-02-16T21:58:20;101453.81;;;21.28;50.38
44825;BME280;30542;47.928;2.138;2024-02-16T22:03:20;101454.03;;;21.26;50.49
44825;BME280;30542;47.928;2.138;2024-02-16T22:08:20;101463.94;;;21.26;50.35
44825;BME280;30542;47.928;2.138;2024-02-16T22:13:21;101474.09;;;21.24;50.36
44825;BME280;30542;47.928;2.138;2024-02-16T22:18:21;101484.81;;;21.24;50.43
44825;BME280;30542;47.928;2.138;2024-02-16T22:23:21;101484.50;;;21.20;50.50
44825;BME280;30542;47.928;2.138;2024-02-16T22:28:22;101486.84;;;21.17;50.28
44825;BME280;30542;47.928;2.138;2024-02-16T22:33:23;101488.94;;;21.15;50.30
44825;BME280;30542;47.928;2.138;2024-02-16T22:38:25;101495.63;;;21.12;50.44
44825;BME280;30542;47.928;2.138;2024-02-16T22:43:28;101511.09;;;21.10;50.12
44825;BME280;30542;47.928;2.138;2024-02-16T22:48:28;101507.06;;;21.07;50.25
44825;BME280;30542;47.928;2.138;2024-02-16T22:53:29;101506.25;;;21.07;50.06
44825;BME280;30542;47.928;2.138;2024-02-16T22:58:29;101519.88;;;21.05;50.17
44825;BME280;30542;47.928;2.138;2024-02-16T23:03:30;101525.69;;;21.02;50.16
44825;BME280;30542;47.928;2.138;2024-02-16T23:08:30;101523.53;;;20.99;50.19
44825;BME280;30542;47.928;2.138;2024-02-16T23:13:32;101528.75;;;20.94;50.00
44825;BME280;30542;47.928;2.138;2024-02-16T23:18:32;101534.97;;;20.95;50.45
44825;BME280;30542;47.928;2.138;2024-02-16T23:23:33;101537.53;;;20.90;50.30
44825;BME280;30542;47.928;2.138;2024-02-16T23:28:34;101536.06;;;20.82;50.34
44825;BME280;30542;47.928;2.138;2024-02-16T23:33:34;101555.72;;;20.88;50.40
44825;BME280;30542;47.928;2.138;2024-02-16T23:38:34;101558.63;;;20.86;50.31
44825;BME280;30542;47.928;2.138;2024-02-16T23:43:35;101558.31;;;20.82;50.50
44825;BME280;30542;47.928;2.138;2024-02-16T23:48:37;101559.13;;;20.83;50.39
44825;BME280;30542;47.928;2.138;2024-02-16T23:53:37;101576.47;;;20.80;50.46
44825;BME280;30542;47.928;2.138;2024-02-16T23:58:38;101580.19;;;20.79;50.27
